sensor_id;sensor_type;location;lat;lon;timestamp;pressure;altitude;pressure_sealevel;temperature;humidity
6532;BME280;3299;42.004;24.868;2023-05-11T00:00:06;98565.19;;;9.64;100.00
6532;BME280;3299;42.004;24.868;2023-05-11T00:02:31;98650.56;;;10.17;100.00
6532;BME280;3299;42.004;24.868;2023-05-11T00:04:57;98604.34;;;9.99;100.00
6532;BME280;3299;42.004;24.868;2023-05-11T00:07:23;98556.59;;;9.78;100.00
6532;BME280;3299;42.004;24.868;2023-05-11T00:09:48;98553.22;;;9.90;100.00
6532;BME280;3299;42.004;24.868;2023-05-11T00:12:13;98562.75;;;9.89;100.00
6532;BME280;3299;42.004;24.868;2023-05-11T00:14:39;98643.56;;;10.46;100.00
6532;BME280;3299;42.004;24.868;2023-05-11T00:17:05;98624.91;;;10.41;100.00
6532;BME280;3299;42.004;24.868;2023-05-11T00:19:31;98580.25;;;10.13;100.00
6532;BME280;3299;42.004;24.868;2023-05-11T00:21:57;98556.03;;;9.87;100.00
6532;BME280;3299;42.004;24.868;2023-05-11T00:24:23;98617.81;;;10.18;100.00
6532;BME280;3299;42.004;24.868;2023-05-11T00:26:49;98598.66;;;9.94;100.00
6532;BME280;3299;42.004;24.868;2023-05-11T00:29:14;98567.81;;;9.91;100.00
6532;BME280;3299;42.004;24.868;2023-05-11T00:31:40;98609.88;;;10.07;100.00
6532;BME280;3299;42.004;24.868;2023-05-11T00:34:05;98677.25;;;10.58;100.00
6532;BME280;3299;42.004;24.868;2023-05-11T00:36:31;98659.09;;;10.46;100.00
6532;BME280;3299;42.004;24.868;2023-05-11T00:38:57;98613.03;;;10.12;100.00
6532;BME280;3299;42.004;24.868;2023-05-11T00:41:22;98560.97;;;9.90;100.00
6532;BME280;3299;42.004;24.868;2023-05-11T00:43:48;98657.38;;;10.32;100.00
6532;BME280;3299;42.004;24.868;2023-05-11T00:46:13;98614.78;;;9.97;100.00
6532;BME280;3299;42.004;24.868;2023-05-11T00:48:39;98656.59;;;10.18;100.00
6532;BME280;3299;42.004;24.868;2023-05-11T00:51:05;98685.03;;;10.18;100.00
6532;BME280;3299;42.004;24.868;2023-05-11T00:53:31;98630.22;;;9.85;100.00
6532;BME280;3299;42.004;24.868;2023-05-11T00:55:57;98668.25;;;10.11;100.00
6532;BME280;3299;42.004;24.868;2023-05-11T00:58:23;98620.97;;;9.95;100.00
6532;BME280;3299;42.004;24.868;2023-05-11T01:00:49;98580.78;;;9.77;100.00
6532;BME280;3299;42.004;24.868;2023-05-11T01:03:15;98599.75;;;9.90;100.00
6532;BME280;3299;42.004;24.868;2023-05-11T01:05:53;98670.78;;;10.25;100.00
6532;BME280;3299;42.004;24.868;2023-05-11T01:08:24;98579.50;;;9.70;100.00
6532;BME280;3299;42.004;24.868;2023-05-11T01:11:02;98566.38;;;9.73;100.00
6532;BME280;3299;42.004;24.868;2023-05-11T01:13:42;98587.31;;;9.82;100.00
6532;BME280;3299;42.004;24.868;2023-05-11T01:16:14;98588.81;;;9.73;100.00
6532;BME280;3299;42.004;24.868;2023-05-11T01:18:55;98662.47;;;10.20;100.00
6532;BME280;3299;42.004;24.868;2023-05-11T01:21:22;98628.56;;;9.98;100.00
6532;BME280;3299;42.004;24.868;2023-05-11T01:32:23;98632.22;;;10.08;100.00
6532;BME280;3299;42.004;24.868;2023-05-11T01:35:01;98573.94;;;9.76;100.00
6532;BME280;3299;42.004;24.868;2023-05-11T01:37:30;98616.25;;;10.15;100.00
6532;BME280;3299;42.004;24.868;2023-05-11T01:39:58;98560.59;;;9.96;100.00
6532;BME280;3299;42.004;24.868;2023-05-11T01:42:30;98590.34;;;10.29;100.00
6532;BME280;3299;42.004;24.868;2023-05-11T01:44:58;98589.72;;;10.38;100.00
6532;BME280;3299;42.004;24.868;2023-05-11T01:47:25;98660.00;;;10.84;100.00
6532;BME280;3299;42.004;24.868;2023-05-11T01:49:53;98677.75;;;11.02;100.00
6532;BME280;3299;42.004;24.868;2023-05-11T01:52:22;98657.50;;;10.70;100.00
6532;BME280;3299;42.004;24.868;2023-05-11T01:54:51;98670.34;;;10.71;100.00
6532;BME280;3299;42.004;24.868;2023-05-11T01:57:17;98615.16;;;10.32;100.00
6532;BME280;3299;42.004;24.868;2023-05-11T01:59:44;98652.03;;;10.48;100.00
6532;BME280;3299;42.004;24.868;2023-05-11T02:02:12;98627.44;;;10.16;100.00
6532;BME280;3299;42.004;24.868;2023-05-11T02:04:39;98657.13;;;10.23;100.00
6532;BME280;3299;42.004;24.868;2023-05-11T02:07:07;98612.28;;;9.96;100.00
6532;BME280;3299;42.004;24.868;2023-05-11T02:09:35;98585.38;;;9.86;100.00
6532;BME280;3299;42.004;24.868;2023-05-11T02:12:02;98620.88;;;9.96;100.00
6532;BME280;3299;42.004;24.868;2023-05-11T02:14:29;98659.63;;;10.24;100.00
6532;BME280;3299;42.004;24.868;2023-05-11T02:16:59;98660.16;;;10.29;100.00
6532;BME280;3299;42.004;24.868;2023-05-11T02:19:27;98654.09;;;10.43;100.00
6532;BME280;3299;42.004;24.868;2023-05-11T02:21:54;98664.84;;;10.37;100.00
6532;BME280;3299;42.004;24.868;2023-05-11T02:24:20;98614.28;;;10.19;100.00
6532;BME280;3299;42.004;24.868;2023-05-11T02:26:47;98617.00;;;10.30;100.00
6532;BME280;3299;42.004;24.868;2023-05-11T02:29:13;98664.53;;;10.68;100.00
6532;BME280;3299;42.004;24.868;2023-05-11T02:31:45;98651.78;;;10.65;100.00
6532;BME280;3299;42.004;24.868;2023-05-11T02:34:23;98652.13;;;10.73;100.00
6532;BME280;3299;42.004;24.868;2023-05-11T02:36:52;98665.97;;;10.72;100.00
6532;BME280;3299;42.004;24.868;2023-05-11T02:39:19;98627.81;;;10.36;100.00
6532;BME280;3299;42.004;24.868;2023-05-11T02:41:55;98629.84;;;10.31;100.00
6532;BME280;3299;42.004;24.868;2023-05-11T02:44:22;98661.91;;;10.29;100.00
6532;BME280;3299;42.004;24.868;2023-05-11T02:46:52;98620.06;;;10.10;100.00
6532;BME280;3299;42.004;24.868;2023-05-11T02:49:21;98631.84;;;10.14;100.00
6532;BME280;3299;42.004;24.868;2023-05-11T02:51:49;98661.69;;;10.32;100.00
6532;BME280;3299;42.004;24.868;2023-05-11T02:54:16;98617.38;;;9.97;100.00
6532;BME280;3299;42.004;24.868;2023-05-11T02:56:42;98586.91;;;9.88;100.00
6532;BME280;3299;42.004;24.868;2023-05-11T02:59:09;98659.38;;;10.15;100.00
6532;BME280;3299;42.004;24.868;2023-05-11T03:01:34;98601.28;;;9.80;100.00
6532;BME280;3299;42.004;24.868;2023-05-11T03:04:03;98583.75;;;9.71;100.00
6532;BME280;3299;42.004;24.868;2023-05-11T03:06:28;98593.16;;;9.72;100.00
6532;BME280;3299;42.004;24.868;2023-05-11T03:08:55;98681.06;;;9.98;100.00
6532;BME280;3299;42.004;24.868;2023-05-11T03:11:21;98638.16;;;9.68;100.00
6532;BME280;3299;42.004;24.868;2023-05-11T03:13:47;98698.16;;;9.87;100.00
6532;BME280;3299;42.004;24.868;2023-05-11T03:16:15;98606.28;;;9.55;100.00
6532;BME280;3299;42.004;24.868;2023-05-11T03:18:41;98585.81;;;9.52;100.00
6532;BME280;3299;42.004;24.868;2023-05-11T03:21:08;98680.06;;;10.15;100.00
6532;BME280;3299;42.004;24.868;2023-05-11T03:23:35;98688.63;;;10.29;100.00
6532;BME280;3299;42.004;24.868;2023-05-11T03:26:01;98616.41;;;9.86;100.00
6532;BME280;3299;42.004;24.868;2023-05-11T03:28:29;98622.06;;;9.91;100.00
6532;BME280;3299;42.004;24.868;2023-05-11T03:30:55;98652.53;;;10.00;100.00
6532;BME280;3299;42.004;24.868;2023-05-11T03:33:20;98687.22;;;10.24;100.00
6532;BME280;3299;42.004;24.868;2023-05-11T03:35:48;98654.38;;;10.12;100.00
6532;BME280;3299;42.004;24.868;2023-05-11T03:38:15;98604.72;;;9.67;100.00
6532;BME280;3299;42.004;24.868;2023-05-11T03:40:41;98570.16;;;9.41;100.00
6532;BME280;3299;42.004;24.868;2023-05-11T03:43:10;98655.13;;;10.00;100.00
6532;BME280;3299;42.004;24.868;2023-05-11T03:45:37;98665.84;;;9.94;100.00
6532;BME280;3299;42.004;24.868;2023-05-11T03:48:04;98705.88;;;10.29;100.00
6532;BME280;3299;42.004;24.868;2023-05-11T03:50:31;98678.97;;;10.05;100.00
6532;BME280;3299;42.004;24.868;2023-05-11T03:52:58;98615.69;;;9.70;100.00
6532;BME280;3299;42.004;24.868;2023-05-11T03:55:24;98685.97;;;10.17;100.00
6532;BME280;3299;42.004;24.868;2023-05-11T03:57:51;98691.47;;;10.25;100.00
6532;BME280;3299;42.004;24.868;2023-05-11T04:00:17;98664.34;;;10.18;100.00
6532;BME280;3299;42.004;24.868;2023-05-11T04:02:42;98713.88;;;10.38;100.00
6532;BME280;3299;42.004;24.868;2023-05-11T04:05:09;98658.34;;;10.17;100.00
6532;BME280;3299;42.004;24.868;2023-05-11T04:07:36;98663.19;;;10.36;100.00
6532;BME280;3299;42.004;24.868;2023-05-11T04:10:03;98609.81;;;9.94;100.00
6532;BME280;3299;42.004;24.868;2023-05-11T04:12:28;98690.13;;;10.46;100.00
6532;BME280;3299;42.004;24.868;2023-05-11T04:14:53;98644.09;;;10.24;100.00
6532;BME280;3299;42.004;24.868;2023-05-11T04:17:19;98674.78;;;10.43;100.00
6532;BME280;3299;42.004;24.868;2023-05-11T04:19:44;98682.16;;;10.49;100.00
6532;BME280;3299;42.004;24.868;2023-05-11T04:22:10;98671.31;;;10.44;100.00
6532;BME280;3299;42.004;24.868;2023-05-11T04:24:37;98707.84;;;10.78;100.00
6532;BME280;3299;42.004;24.868;2023-05-11T04:27:02;98711.44;;;10.76;100.00
6532;BME280;3299;42.004;24.868;2023-05-11T04:29:28;98700.38;;;10.74;100.00
6532;BME280;3299;42.004;24.868;2023-05-11T04:31:53;98672.41;;;10.40;100.00
6532;BME280;3299;42.004;24.868;2023-05-11T04:34:19;98704.03;;;10.57;100.00
6532;BME280;3299;42.004;24.868;2023-05-11T04:36:49;98700.22;;;10.63;100.00
6532;BME280;3299;42.004;24.868;2023-05-11T04:39:15;98714.66;;;10.79;100.00
6532;BME280;3299;42.004;24.868;2023-05-11T04:41:44;98671.78;;;10.63;100.00
6532;BME280;3299;42.004;24.868;2023-05-11T04:44:09;98659.72;;;10.49;100.00
6532;BME280;3299;42.004;24.868;2023-05-11T04:46:35;98702.25;;;10.84;100.00
6532;BME280;3299;42.004;24.868;2023-05-11T04:49:05;98668.56;;;10.72;100.00
6532;BME280;3299;42.004;24.868;2023-05-11T04:51:31;98708.09;;;11.00;100.00
6532;BME280;3299;42.004;24.868;2023-05-11T04:53:57;98674.31;;;10.89;100.00
6532;BME280;3299;42.004;24.868;2023-05-11T04:56:23;98715.69;;;11.16;100.00
6532;BME280;3299;42.004;24.868;2023-05-11T04:58:48;98635.97;;;10.69;100.00
6532;BME280;3299;42.004;24.868;2023-05-11T05:01:13;98681.78;;;10.94;100.00
6532;BME280;3299;42.004;24.868;2023-05-11T05:03:39;98624.84;;;10.55;100.00
6532;BME280;3299;42.004;24.868;2023-05-11T05:06:04;98702.34;;;10.83;100.00
6532;BME280;3299;42.004;24.868;2023-05-11T05:08:30;98718.75;;;10.96;100.00
6532;BME280;3299;42.004;24.868;2023-05-11T05:10:55;98631.56;;;10.45;100.00
6532;BME280;3299;42.004;24.868;2023-05-11T05:13:21;98698.31;;;10.79;100.00
6532;BME280;3299;42.004;24.868;2023-05-11T05:15:46;98709.50;;;10.79;100.00
6532;BME280;3299;42.004;24.868;2023-05-11T05:18:11;98652.88;;;10.48;100.00
6532;BME280;3299;42.004;24.868;2023-05-11T05:20:37;98616.88;;;10.19;100.00
6532;BME280;3299;42.004;24.868;2023-05-11T05:23:03;98727.69;;;10.78;100.00
6532;BME280;3299;42.004;24.868;2023-05-11T05:25:29;98721.94;;;10.87;100.00
6532;BME280;3299;42.004;24.868;2023-05-11T05:27:55;98714.72;;;10.92;100.00
6532;BME280;3299;42.004;24.868;2023-05-11T05:30:20;98650.63;;;10.56;100.00
6532;BME280;3299;42.004;24.868;2023-05-11T05:32:48;98723.19;;;10.94;100.00
6532;BME280;3299;42.004;24.868;2023-05-11T05:35:13;98675.06;;;10.65;100.00
6532;BME280;3299;42.004;24.868;2023-05-11T05:37:39;98679.44;;;10.64;100.00
6532;BME280;3299;42.004;24.868;2023-05-11T05:40:05;98692.63;;;10.74;100.00
6532;BME280;3299;42.004;24.868;2023-05-11T05:42:31;98697.28;;;10.81;100.00
6532;BME280;3299;42.004;24.868;2023-05-11T05:44:56;98692.50;;;10.75;100.00
6532;BME280;3299;42.004;24.868;2023-05-11T05:47:21;98643.75;;;10.43;100.00
6532;BME280;3299;42.004;24.868;2023-05-11T05:49:50;98644.28;;;10.48;100.00
6532;BME280;3299;42.004;24.868;2023-05-11T05:52:15;98691.59;;;10.89;100.00
6532;BME280;3299;42.004;24.868;2023-05-11T05:54:41;98729.00;;;10.97;100.00
6532;BME280;3299;42.004;24.868;2023-05-11T05:57:06;98661.84;;;10.69;100.00
6532;BME280;3299;42.004;24.868;2023-05-11T05:59:31;98644.25;;;10.62;100.00
6532;BME280;3299;42.004;24.868;2023-05-11T06:01:57;98690.47;;;10.93;100.00
6532;BME280;3299;42.004;24.868;2023-05-11T06:04:22;98677.09;;;10.86;100.00
6532;BME280;3299;42.004;24.868;2023-05-11T06:06:48;98735.69;;;11.14;100.00
6532;BME280;3299;42.004;24.868;2023-05-11T06:09:13;98743.69;;;11.23;100.00
6532;BME280;3299;42.004;24.868;2023-05-11T06:11:39;98706.25;;;11.02;100.00
6532;BME280;3299;42.004;24.868;2023-05-11T06:14:07;98719.53;;;11.23;100.00
6532;BME280;3299;42.004;24.868;2023-05-11T06:16:33;98660.66;;;11.00;100.00
6532;BME280;3299;42.004;24.868;2023-05-11T06:18:58;98675.19;;;11.15;100.00
6532;BME280;3299;42.004;24.868;2023-05-11T06:21:24;98752.78;;;11.68;100.00
6532;BME280;3299;42.004;24.868;2023-05-11T06:23:49;98653.41;;;11.05;100.00
6532;BME280;3299;42.004;24.868;2023-05-11T06:26:14;98654.66;;;11.12;100.00
6532;BME280;3299;42.004;24.868;2023-05-11T06:28:40;98740.34;;;11.73;100.00
6532;BME280;3299;42.004;24.868;2023-05-11T06:31:05;98752.78;;;11.68;100.00
6532;BME280;3299;42.004;24.868;2023-05-11T06:33:31;98638.06;;;11.02;100.00
6532;BME280;3299;42.004;24.868;2023-05-11T06:35:56;98691.34;;;11.31;100.00
6532;BME280;3299;42.004;24.868;2023-05-11T06:38:22;98737.44;;;11.77;100.00
6532;BME280;3299;42.004;24.868;2023-05-11T06:40:51;98688.50;;;11.73;100.00
6532;BME280;3299;42.004;24.868;2023-05-11T06:43:16;98682.38;;;11.74;97.17
6532;BME280;3299;42.004;24.868;2023-05-11T06:45:45;98737.63;;;11.99;99.05
6532;BME280;3299;42.004;24.868;2023-05-11T06:48:11;98741.78;;;12.02;100.00
6532;BME280;3299;42.004;24.868;2023-05-11T06:50:36;98744.22;;;12.16;100.00
6532;BME280;3299;42.004;24.868;2023-05-11T06:53:01;98647.41;;;11.79;100.00
6532;BME280;3299;42.004;24.868;2023-05-11T06:55:27;98699.00;;;12.20;96.91
6532;BME280;3299;42.004;24.868;2023-05-11T06:57:52;98649.47;;;11.87;97.40
6532;BME280;3299;42.004;24.868;2023-05-11T07:00:18;98736.72;;;12.36;96.78
6532;BME280;3299;42.004;24.868;2023-05-11T07:02:43;98764.47;;;12.59;94.78
6532;BME280;3299;42.004;24.868;2023-05-11T07:05:08;98658.97;;;11.99;95.97
6532;BME280;3299;42.004;24.868;2023-05-11T07:07:34;98700.22;;;12.27;96.60
6532;BME280;3299;42.004;24.868;2023-05-11T07:09:59;98750.22;;;12.65;96.36
6532;BME280;3299;42.004;24.868;2023-05-11T07:12:25;98702.59;;;12.53;97.29
6532;BME280;3299;42.004;24.868;2023-05-11T07:14:50;98651.47;;;12.43;95.75
6532;BME280;3299;42.004;24.868;2023-05-11T07:17:15;98659.47;;;12.40;93.62
6532;BME280;3299;42.004;24.868;2023-05-11T07:19:41;98692.22;;;12.53;94.21
6532;BME280;3299;42.004;24.868;2023-05-11T07:22:06;98669.63;;;12.43;94.20
6532;BME280;3299;42.004;24.868;2023-05-11T07:24:32;98723.09;;;12.69;93.70
6532;BME280;3299;42.004;24.868;2023-05-11T07:26:57;98690.28;;;12.68;93.29
6532;BME280;3299;42.004;24.868;2023-05-11T07:29:22;98712.81;;;12.91;89.52
6532;BME280;3299;42.004;24.868;2023-05-11T07:31:48;98689.44;;;12.91;88.87
6532;BME280;3299;42.004;24.868;2023-05-11T07:34:13;98744.75;;;13.27;86.75
6532;BME280;3299;42.004;24.868;2023-05-11T07:36:38;98720.59;;;13.03;88.29
6532;BME280;3299;42.004;24.868;2023-05-11T07:39:04;98673.34;;;12.86;90.59
6532;BME280;3299;42.004;24.868;2023-05-11T07:41:30;98732.06;;;13.23;90.85
6532;BME280;3299;42.004;24.868;2023-05-11T07:43:55;98652.44;;;12.76;90.49
6532;BME280;3299;42.004;24.868;2023-05-11T07:46:21;98665.91;;;12.81;89.97
6532;BME280;3299;42.004;24.868;2023-05-11T07:48:46;98689.72;;;12.99;91.70
6532;BME280;3299;42.004;24.868;2023-05-11T07:51:12;98691.41;;;13.00;90.21
6532;BME280;3299;42.004;24.868;2023-05-11T07:53:37;98658.22;;;12.80;88.64
6532;BME280;3299;42.004;24.868;2023-05-11T07:56:03;98724.28;;;13.23;89.52
6532;BME280;3299;42.004;24.868;2023-05-11T07:58:29;98669.81;;;12.87;89.92
6532;BME280;3299;42.004;24.868;2023-05-11T08:00:55;98645.94;;;12.82;88.22
6532;BME280;3299;42.004;24.868;2023-05-11T08:03:21;98731.66;;;13.29;89.84
6532;BME280;3299;42.004;24.868;2023-05-11T08:05:47;98676.41;;;13.03;89.98
6532;BME280;3299;42.004;24.868;2023-05-11T08:08:12;98702.09;;;13.19;89.63
6532;BME280;3299;42.004;24.868;2023-05-11T08:10:37;98676.66;;;13.11;88.88
6532;BME280;3299;42.004;24.868;2023-05-11T08:13:03;98718.31;;;13.33;87.78
6532;BME280;3299;42.004;24.868;2023-05-11T08:15:28;98728.13;;;13.52;87.55
6532;BME280;3299;42.004;24.868;2023-05-11T08:17:54;98750.84;;;13.61;88.45
6532;BME280;3299;42.004;24.868;2023-05-11T08:20:19;98664.91;;;12.95;85.83
6532;BME280;3299;42.004;24.868;2023-05-11T08:22:45;98708.72;;;13.34;87.03
6532;BME280;3299;42.004;24.868;2023-05-11T08:25:11;98701.63;;;13.25;85.53
6532;BME280;3299;42.004;24.868;2023-05-11T08:27:36;98660.25;;;13.00;87.33
6532;BME280;3299;42.004;24.868;2023-05-11T08:30:02;98664.47;;;13.01;88.17
6532;BME280;3299;42.004;24.868;2023-05-11T08:32:28;98730.59;;;13.42;86.50
6532;BME280;3299;42.004;24.868;2023-05-11T08:34:54;98733.34;;;13.63;86.56
6532;BME280;3299;42.004;24.868;2023-05-11T08:37:19;98705.66;;;13.40;85.72
6532;BME280;3299;42.004;24.868;2023-05-11T08:39:45;98653.88;;;13.15;85.85
6532;BME280;3299;42.004;24.868;2023-05-11T08:42:11;98693.38;;;13.31;85.13
6532;BME280;3299;42.004;24.868;2023-05-11T08:44:42;98712.75;;;13.38;86.63
6532;BME280;3299;42.004;24.868;2023-05-11T08:47:07;98680.84;;;13.25;86.35
6532;BME280;3299;42.004;24.868;2023-05-11T08:49:33;98743.75;;;13.63;85.62
6532;BME280;3299;42.004;24.868;2023-05-11T08:52:03;98744.22;;;13.57;85.27
6532;BME280;3299;42.004;24.868;2023-05-11T08:54:29;98696.47;;;13.36;85.19
6532;BME280;3299;42.004;24.868;2023-05-11T08:56:55;98715.09;;;13.30;87.53
6532;BME280;3299;42.004;24.868;2023-05-11T08:59:22;98700.94;;;13.45;83.65
6532;BME280;3299;42.004;24.868;2023-05-11T09:01:50;98705.34;;;13.44;82.70
6532;BME280;3299;42.004;24.868;2023-05-11T09:04:17;98663.06;;;13.08;85.45
6532;BME280;3299;42.004;24.868;2023-05-11T09:06:43;98732.66;;;13.61;86.70
6532;BME280;3299;42.004;24.868;2023-05-11T09:09:09;98654.72;;;13.15;86.32
6532;BME280;3299;42.004;24.868;2023-05-11T09:11:35;98713.25;;;13.54;85.84
6532;BME280;3299;42.004;24.868;2023-05-11T09:14:00;98727.47;;;13.72;87.03
6532;BME280;3299;42.004;24.868;2023-05-11T09:16:26;98715.41;;;13.71;86.61
6532;BME280;3299;42.004;24.868;2023-05-11T09:18:52;98714.22;;;13.75;85.73
6532;BME280;3299;42.004;24.868;2023-05-11T09:21:18;98653.69;;;13.51;83.97
6532;BME280;3299;42.004;24.868;2023-05-11T09:23:47;98681.81;;;13.57;83.87
6532;BME280;3299;42.004;24.868;2023-05-11T09:26:20;98714.97;;;13.88;82.91
6532;BME280;3299;42.004;24.868;2023-05-11T09:28:53;98623.56;;;13.26;84.23
6532;BME280;3299;42.004;24.868;2023-05-11T09:31:44;98716.59;;;13.89;82.83
6532;BME280;3299;42.004;24.868;2023-05-11T09:36:35;98647.53;;;13.52;84.35
6532;BME280;3299;42.004;24.868;2023-05-11T09:39:02;98621.31;;;13.55;84.65
6532;BME280;3299;42.004;24.868;2023-05-11T09:41:28;98657.00;;;13.86;83.16
6532;BME280;3299;42.004;24.868;2023-05-11T09:44:03;98653.44;;;13.98;82.39
6532;BME280;3299;42.004;24.868;2023-05-11T09:46:29;98661.81;;;14.01;83.00
6532;BME280;3299;42.004;24.868;2023-05-11T09:48:58;98664.56;;;14.00;82.68
6532;BME280;3299;42.004;24.868;2023-05-11T09:51:29;98659.13;;;13.92;84.07
6532;BME280;3299;42.004;24.868;2023-05-11T09:53:59;98638.78;;;13.75;84.63
6532;BME280;3299;42.004;24.868;2023-05-11T09:59:17;98644.34;;;14.03;82.24
6532;BME280;3299;42.004;24.868;2023-05-11T10:01:45;98691.88;;;14.16;84.09
6532;BME280;3299;42.004;24.868;2023-05-11T10:04:10;98671.78;;;14.07;82.59
6532;BME280;3299;42.004;24.868;2023-05-11T10:06:47;98654.38;;;13.97;81.54
6532;BME280;3299;42.004;24.868;2023-05-11T10:09:14;98644.81;;;14.08;80.25
6532;BME280;3299;42.004;24.868;2023-05-11T10:11:43;98619.97;;;14.04;80.03
6532;BME280;3299;42.004;24.868;2023-05-11T10:14:11;98636.38;;;14.27;80.87
6532;BME280;3299;42.004;24.868;2023-05-11T10:16:38;98677.22;;;14.69;80.95
6532;BME280;3299;42.004;24.868;2023-05-11T10:19:05;98634.41;;;14.51;80.79
6532;BME280;3299;42.004;24.868;2023-05-11T10:21:30;98642.06;;;14.63;80.87
6532;BME280;3299;42.004;24.868;2023-05-11T10:23:56;98598.34;;;14.46;80.25
6532;BME280;3299;42.004;24.868;2023-05-11T10:26:24;98597.97;;;14.51;79.43
6532;BME280;3299;42.004;24.868;2023-05-11T10:28:51;98642.78;;;14.86;79.72
6532;BME280;3299;42.004;24.868;2023-05-11T10:31:16;98621.72;;;14.89;77.23
6532;BME280;3299;42.004;24.868;2023-05-11T10:33:49;98621.38;;;15.03;76.95
6532;BME280;3299;42.004;24.868;2023-05-11T10:36:17;98641.97;;;15.26;76.90
6532;BME280;3299;42.004;24.868;2023-05-11T10:38:42;98680.06;;;15.59;75.51
6532;BME280;3299;42.004;24.868;2023-05-11T10:41:32;98636.59;;;15.39;74.93
6532;BME280;3299;42.004;24.868;2023-05-11T10:44:24;98620.16;;;15.48;75.10
6532;BME280;3299;42.004;24.868;2023-05-11T10:55:11;98671.66;;;16.25;70.40
6532;BME280;3299;42.004;24.868;2023-05-11T10:57:47;98630.94;;;15.94;70.74
6532;BME280;3299;42.004;24.868;2023-05-11T11:03:31;98653.09;;;15.49;73.14
6532;BME280;3299;42.004;24.868;2023-05-11T11:05:57;98619.78;;;15.32;73.02
6532;BME280;3299;42.004;24.868;2023-05-11T11:08:22;98652.50;;;15.66;72.97
6532;BME280;3299;42.004;24.868;2023-05-11T11:10:48;98631.03;;;15.53;74.03
6532;BME280;3299;42.004;24.868;2023-05-11T11:13:16;98605.03;;;15.42;74.66
6532;BME280;3299;42.004;24.868;2023-05-11T11:18:31;98667.34;;;15.65;71.55
6532;BME280;3299;42.004;24.868;2023-05-11T11:21:00;98626.34;;;15.47;73.07
6532;BME280;3299;42.004;24.868;2023-05-11T11:23:47;98663.28;;;15.82;73.67
6532;BME280;3299;42.004;24.868;2023-05-11T11:26:16;98649.03;;;15.86;73.94
6532;BME280;3299;42.004;24.868;2023-05-11T11:31:28;98585.25;;;15.69;71.27
6532;BME280;3299;42.004;24.868;2023-05-11T11:33:58;98606.25;;;15.68;72.77
6532;BME280;3299;42.004;24.868;2023-05-11T11:44:37;98553.81;;;15.71;70.72
6532;BME280;3299;42.004;24.868;2023-05-11T11:47:23;98642.00;;;16.26;69.06
6532;BME280;3299;42.004;24.868;2023-05-11T11:49:52;98599.88;;;15.91;70.00
6532;BME280;3299;42.004;24.868;2023-05-11T11:54:59;98554.78;;;15.70;69.82
6532;BME280;3299;42.004;24.868;2023-05-11T11:59:53;98585.88;;;15.92;69.82
6532;BME280;3299;42.004;24.868;2023-05-11T12:02:19;98549.28;;;15.73;70.55
6532;BME280;3299;42.004;24.868;2023-05-11T12:04:51;98537.63;;;15.77;69.37
6532;BME280;3299;42.004;24.868;2023-05-11T12:07:20;98561.69;;;15.90;69.60
6532;BME280;3299;42.004;24.868;2023-05-11T12:09:45;98567.75;;;16.00;68.61
6532;BME280;3299;42.004;24.868;2023-05-11T12:12:11;98523.06;;;15.84;69.40
6532;BME280;3299;42.004;24.868;2023-05-11T12:14:38;98525.03;;;16.01;70.32
6532;BME280;3299;42.004;24.868;2023-05-11T12:17:05;98526.41;;;16.14;69.10
6532;BME280;3299;42.004;24.868;2023-05-11T12:19:43;98597.78;;;16.81;67.50
6532;BME280;3299;42.004;24.868;2023-05-11T12:22:10;98553.81;;;16.48;66.14
6532;BME280;3299;42.004;24.868;2023-05-11T12:24:38;98518.31;;;16.36;65.23
6532;BME280;3299;42.004;24.868;2023-05-11T12:27:03;98551.00;;;16.88;65.57
6532;BME280;3299;42.004;24.868;2023-05-11T12:29:29;98519.00;;;16.67;66.88
6532;BME280;3299;42.004;24.868;2023-05-11T12:31:55;98524.38;;;16.65;65.98
6532;BME280;3299;42.004;24.868;2023-05-11T12:34:21;98525.72;;;16.60;63.54
6532;BME280;3299;42.004;24.868;2023-05-11T12:36:49;98593.66;;;16.79;63.54
6532;BME280;3299;42.004;24.868;2023-05-11T12:39:23;98503.34;;;16.10;65.34
6532;BME280;3299;42.004;24.868;2023-05-11T12:41:51;98536.03;;;16.33;65.90
6532;BME280;3299;42.004;24.868;2023-05-11T12:44:18;98568.34;;;16.70;65.61
6532;BME280;3299;42.004;24.868;2023-05-11T12:46:47;98521.91;;;16.45;65.01
6532;BME280;3299;42.004;24.868;2023-05-11T12:49:21;98544.72;;;16.62;63.93
6532;BME280;3299;42.004;24.868;2023-05-11T12:52:04;98518.56;;;16.33;64.90
6532;BME280;3299;42.004;24.868;2023-05-11T12:54:36;98512.53;;;16.33;65.71
6532;BME280;3299;42.004;24.868;2023-05-11T12:57:03;98472.44;;;16.15;65.20
6532;BME280;3299;42.004;24.868;2023-05-11T12:59:34;98543.47;;;16.66;66.12
6532;BME280;3299;42.004;24.868;2023-05-11T13:02:11;98558.84;;;16.88;66.25
6532;BME280;3299;42.004;24.868;2023-05-11T13:04:39;98538.91;;;16.77;65.81
6532;BME280;3299;42.004;24.868;2023-05-11T13:07:05;98512.69;;;16.12;67.54
6532;BME280;3299;42.004;24.868;2023-05-11T13:09:30;98491.63;;;16.14;66.89
6532;BME280;3299;42.004;24.868;2023-05-11T13:12:17;98524.91;;;16.12;65.74
6532;BME280;3299;42.004;24.868;2023-05-11T13:14:45;98541.28;;;16.23;65.24
6532;BME280;3299;42.004;24.868;2023-05-11T13:17:12;98528.47;;;16.11;64.94
6532;BME280;3299;42.004;24.868;2023-05-11T13:19:37;98542.50;;;16.19;65.79
6532;BME280;3299;42.004;24.868;2023-05-11T13:22:04;98513.06;;;16.08;64.66
6532;BME280;3299;42.004;24.868;2023-05-11T13:24:30;98466.38;;;15.86;64.13
6532;BME280;3299;42.004;24.868;2023-05-11T13:26:57;98533.28;;;16.25;64.60
6532;BME280;3299;42.004;24.868;2023-05-11T13:29:23;98533.16;;;16.36;64.53
6532;BME280;3299;42.004;24.868;2023-05-11T13:31:50;98551.06;;;16.50;62.85
6532;BME280;3299;42.004;24.868;2023-05-11T13:34:16;98531.94;;;16.49;63.01
6532;BME280;3299;42.004;24.868;2023-05-11T13:36:42;98494.53;;;16.20;63.42
6532;BME280;3299;42.004;24.868;2023-05-11T13:39:08;98483.66;;;16.15;63.83
6532;BME280;3299;42.004;24.868;2023-05-11T13:41:33;98501.13;;;16.34;63.21
6532;BME280;3299;42.004;24.868;2023-05-11T13:43:59;98443.03;;;15.94;63.88
6532;BME280;3299;42.004;24.868;2023-05-11T13:46:24;98522.19;;;16.42;64.34
6532;BME280;3299;42.004;24.868;2023-05-11T13:48:50;98519.00;;;16.48;62.94
6532;BME280;3299;42.004;24.868;2023-05-11T13:51:15;98445.22;;;15.98;62.39